LavenderCAM.net
Leatherhead Weather
 
Leatherhead Weather
 
 





Aviation weather for

London Heathrow (EGLL) and London Gatwick (EGKK)



London Heathrow (EGLL) METAR / Surface Actual
London / Heathrow Airport, United Kingdom (EGLL) 51-29N 000-27W 0M
Dec 04, 2022 - 03:50 PM EST / 2022.12.04 2050 UTC
Wind: from the NE (040 degrees) at 8 MPH (7 KT) (direction variable):0
Visibility: greater than 7 mile(s):0
Sky conditions: overcast
Temperature: 39 F (4 C)
Dew Point: 33 F (1 C)
Relative Humidity: 80%
Pressure (altimeter): 30.09 in. Hg (1019 hPa)
ob: EGLL 042050Z AUTO 04007KT 360V080 9999 FEW015 OVC020 04/01 Q1019 NOSIG
cycle: 21
London Heathrow (EGLL) TAF / Forecast
2022/12/04 18:09
TAF EGLL 041653Z 0418/0524 04009KT 9999 BKN018 
      TEMPO 0420/0422 BKN009 
      BECMG 0422/0501 BKN010 PROB30 
      TEMPO 0501/0506 BKN008 
      BECMG 0507/0510 SCT030


London Gatwick (EGKK) METAR / Surface Actual
London / Gatwick Airport, United Kingdom (EGKK) 51-09N 000-11W 0M
Dec 04, 2022 - 03:50 PM EST / 2022.12.04 2050 UTC
Wind: from the NNE (020 degrees) at 9 MPH (8 KT):0
Visibility: greater than 7 mile(s):0
Sky conditions: mostly cloudy
Temperature: 39 F (4 C)
Dew Point: 35 F (2 C)
Relative Humidity: 86%
Pressure (altimeter): 30.06 in. Hg (1018 hPa)
ob: EGKK 042050Z 02008KT 9999 BKN013 04/02 Q1018
cycle: 21
London Gatwick (EGKK) TAF / Forecast
2022/12/04 18:09
TAF EGKK 041654Z 0418/0524 06009KT 9999 SCT020 
      BECMG 0418/0421 BKN012 
      TEMPO 0420/0510 6000 -RADZ BKN006 PROB30 
      TEMPO 0422/0509 3000 RADZ BKN003 
      BECMG 0509/0512 SCT016 
      TEMPO 0512/0518 BKN012